Time;durP1;ratioP1;P1;durP2;ratioP2;P2;SDS_P1;SDS_P2;PMS_P1;PMS_P2;Temp;Humidity;BMP_temperature;BMP_pressure;BME280_temperature;BME280_humidity;BME280_pressure;Samples;Min_cycle;Max_cycle;Signal;HPM_P1;HPM_P2
2024/01/03 00:02:20;;;;;;;24.10;16.30;;;;;;;9.88;47.16;101143.64;106788;1270;25366;-51
2024/01/03 00:04:48;;;;;;;24.00;16.50;;;;;;;9.89;47.28;101140.16;106111;1272;1003242;-51
2024/01/03 00:07:15;;;;;;;22.50;16.90;;;;;;;9.89;47.44;101143.64;107129;1266;25334;-51
2024/01/03 00:09:42;;;;;;;21.90;16.70;;;;;;;9.90;47.51;101145.70;107070;1267;25401;-51
2024/01/03 00:12:10;;;;;;;22.50;17.00;;;;;;;9.92;47.54;101144.98;106848;1270;25423;-51
2024/01/03 00:14:37;;;;;;;23.50;17.10;;;;;;;9.92;47.85;101145.67;107026;1267;25368;-51
2024/01/03 00:17:04;;;;;;;24.20;17.20;;;;;;;9.93;47.75;101146.69;107028;1267;25347;-51
2024/01/03 00:19:33;;;;;;;26.60;18.60;;;;;;;9.94;47.80;101148.77;106822;1267;24301;-53
2024/01/03 00:22:01;;;;;;;23.10;18.20;;;;;;;9.94;47.91;101150.15;106859;1267;25535;-51
2024/01/03 00:24:28;;;;;;;22.30;17.30;;;;;;;9.95;47.84;101144.95;107027;1267;25328;-52
2024/01/03 00:26:55;;;;;;;24.80;18.30;;;;;;;9.96;47.89;101146.14;107041;1270;22523;-52
2024/01/03 00:29:22;;;;;;;21.50;16.80;;;;;;;9.97;47.88;101148.03;107207;1257;25325;-52
2024/01/03 00:31:49;;;;;;;21.20;16.30;;;;;;;9.98;47.83;101146.63;107116;1260;25325;-51
2024/01/03 00:34:22;;;;;;;24.60;17.90;;;;;;;10.00;47.87;101143.48;107019;1257;25481;-53
2024/01/03 00:36:52;;;;;;;22.50;17.30;;;;;;;10.01;47.74;101138.09;107154;1264;25344;-53
2024/01/03 00:39:32;;;;;;;20.40;16.50;;;;;;;10.03;47.71;101138.08;107063;1256;23113;-53
2024/01/03 00:42:00;;;;;;;24.70;17.90;;;;;;;10.04;47.75;101141.86;107117;1256;25337;-53
2024/01/03 00:44:27;;;;;;;24.10;17.80;;;;;;;10.05;47.79;101139.60;107034;1257;25479;-53
2024/01/03 00:46:54;;;;;;;24.10;17.20;;;;;;;10.06;47.69;101143.23;106843;1260;22649;-53
2024/01/03 00:49:21;;;;;;;22.00;17.50;;;;;;;10.07;47.72;101143.91;106269;1256;1003779;-53
2024/01/03 00:51:49;;;;;;;21.90;17.10;;;;;;;10.07;47.73;101140.80;106186;1259;1003623;-53
2024/01/03 00:54:16;;;;;;;22.50;17.40;;;;;;;10.06;47.56;101142.01;106860;1260;25367;-53
2024/01/03 00:56:44;;;;;;;26.00;18.20;;;;;;;10.06;47.70;101143.40;107039;1253;25262;-52
2024/01/03 00:59:11;;;;;;;25.20;17.20;;;;;;;10.06;47.59;101141.48;107157;1254;25274;-53
2024/01/03 01:01:39;;;;;;;22.00;17.40;;;;;;;10.06;47.61;101145.47;106834;1262;23211;-53
2024/01/03 01:04:05;;;;;;;23.80;17.40;;;;;;;10.06;47.62;101145.99;106988;1253;25366;-53
2024/01/03 01:06:33;;;;;;;24.70;18.10;;;;;;;10.05;47.59;101141.33;106814;1259;25488;-53
2024/01/03 01:09:03;;;;;;;22.70;17.00;;;;;;;10.05;47.66;101141.33;107161;1256;25328;-53
2024/01/03 01:11:31;;;;;;;21.80;16.40;;;;;;;10.01;47.64;101142.42;107131;1257;24365;-53
2024/01/03 01:13:58;;;;;;;21.90;17.10;;;;;;;9.93;47.69;101141.85;107080;1254;25366;-53
2024/01/03 01:16:25;;;;;;;23.40;18.60;;;;;;;9.81;47.80;101138.52;106908;1268;25356;-53
2024/01/03 01:18:52;;;;;;;23.90;17.30;;;;;;;9.73;48.14;101139.68;107088;1257;25341;-52
2024/01/03 01:21:20;;;;;;;20.80;17.50;;;;;;;9.69;48.46;101135.92;106801;1267;25349;-53
2024/01/03 01:23:48;;;;;;;25.40;19.40;;;;;;;9.65;48.81;101136.65;107171;1256;25366;-53
2024/01/03 01:26:15;;;;;;;24.60;18.90;;;;;;;9.61;49.00;101137.89;106976;1256;25366;-53
2024/01/03 01:28:45;;;;;;;28.50;20.70;;;;;;;9.58;49.07;101135.85;107159;1254;24018;-54
2024/01/03 01:31:12;;;;;;;25.00;17.80;;;;;;;9.55;49.04;101136.59;107199;1251;22752;-50
2024/01/03 01:33:39;;;;;;;25.40;18.20;;;;;;;9.53;49.07;101139.20;107119;1263;25365;-51
2024/01/03 01:36:06;;;;;;;23.20;17.80;;;;;;;9.47;49.16;101137.37;107032;1257;25233;-51
2024/01/03 01:38:33;;;;;;;28.70;19.50;;;;;;;9.40;49.29;101141.09;106270;1256;1003251;-51
2024/01/03 01:41:00;;;;;;;25.50;18.90;;;;;;;9.34;49.68;101138.91;107047;1254;25408;-51
2024/01/03 01:43:27;;;;;;;22.50;18.10;;;;;;;9.31;49.88;101138.95;107165;1257;25434;-51
2024/01/03 01:45:54;;;;;;;28.90;20.60;;;;;;;9.30;49.87;101139.80;107214;1257;25328;-51
2024/01/03 01:48:21;;;;;;;25.70;18.70;;;;;;;9.30;49.92;101137.73;107014;1256;25347;-51
2024/01/03 01:50:49;;;;;;;26.40;19.30;;;;;;;9.30;49.81;101144.14;107192;1266;25347;-51
2024/01/03 01:53:16;;;;;;;27.10;19.70;;;;;;;9.29;49.90;101144.33;106395;1264;1002964;-53
2024/01/03 01:55:46;;;;;;;25.60;18.80;;;;;;;9.30;49.91;101141.02;106948;1253;25365;-51
2024/01/03 01:58:14;;;;;;;23.30;17.90;;;;;;;9.32;49.77;101139.27;106935;1257;23855;-51
2024/01/03 02:00:41;;;;;;;27.00;18.00;;;;;;;9.34;49.78;101139.42;106722;1257;25474;-51
2024/01/03 02:03:08;;;;;;;24.70;19.00;;;;;;;9.39;49.79;101137.30;106714;1261;23857;-51
2024/01/03 02:05:37;;;;;;;22.60;17.80;;;;;;;9.44;49.62;101133.95;106105;1251;1002886;-51
2024/01/03 02:08:08;;;;;;;26.00;20.30;;;;;;;9.49;49.60;101132.50;106371;1272;24055;-51
2024/01/03 02:10:36;;;;;;;24.60;18.80;;;;;;;9.56;49.50;101127.57;106721;1254;25341;-51
2024/01/03 02:13:03;;;;;;;26.60;19.30;;;;;;;9.61;49.31;101123.70;106756;1253;25232;-51
2024/01/03 02:15:30;;;;;;;25.10;19.00;;;;;;;9.64;49.15;101116.90;106143;1251;1003083;-51
2024/01/03 02:17:58;;;;;;;28.10;19.60;;;;;;;9.60;49.21;101116.27;107087;1263;25396;-51
2024/01/03 02:20:25;;;;;;;24.50;19.00;;;;;;;9.54;49.38;101113.90;106971;1259;25337;-52
2024/01/03 02:22:53;;;;;;;25.10;19.70;;;;;;;9.49;49.41;101107.73;106837;1257;22533;-51
2024/01/03 02:25:20;;;;;;;24.70;19.40;;;;;;;9.45;49.59;101107.79;107121;1260;22529;-51
2024/01/03 02:27:48;;;;;;;26.80;19.90;;;;;;;9.45;49.63;101106.56;107022;1257;25395;-51
2024/01/03 02:30:15;;;;;;;24.60;19.40;;;;;;;9.50;49.87;101106.35;107101;1257;25315;-51
2024/01/03 02:32:45;;;;;;;25.20;19.70;;;;;;;9.57;49.88;101104.70;106432;1260;1003269;-51
2024/01/03 02:35:12;;;;;;;25.60;20.00;;;;;;;9.63;49.82;101109.98;107120;1256;25481;-51
2024/01/03 02:37:39;;;;;;;26.60;19.80;;;;;;;9.70;49.79;101106.63;107160;1256;25365;-51
2024/01/03 02:40:07;;;;;;;29.80;20.70;;;;;;;9.75;49.75;101109.66;106432;1257;1003481;-52
2024/01/03 02:42:34;;;;;;;28.80;19.60;;;;;;;9.80;49.59;101107.17;106190;1257;1003555;-51
2024/01/03 02:45:01;;;;;;;26.20;20.30;;;;;;;9.84;49.55;101102.44;106811;1259;25405;-51
2024/01/03 02:47:28;;;;;;;27.50;20.50;;;;;;;9.88;49.58;101103.26;106250;1267;358758;-51
2024/01/03 02:49:58;;;;;;;26.30;20.40;;;;;;;9.92;49.47;101101.66;107099;1257;25414;-52
2024/01/03 02:52:25;;;;;;;29.10;21.30;;;;;;;9.96;49.42;101103.34;106081;1256;1003532;-51
2024/01/03 02:54:52;;;;;;;25.80;20.30;;;;;;;9.99;49.31;101101.38;106085;1260;1003089;-51
2024/01/03 02:57:20;;;;;;;25.40;21.60;;;;;;;10.02;49.36;101101.50;107086;1263;25452;-52
2024/01/03 02:59:47;;;;;;;27.20;21.60;;;;;;;10.05;49.28;101101.13;107094;1255;25366;-51
2024/01/03 03:02:14;;;;;;;25.90;21.00;;;;;;;10.08;49.30;101102.81;107020;1260;25362;-52
2024/01/03 03:04:41;;;;;;;25.90;20.40;;;;;;;10.09;49.31;101099.16;107121;1257;25395;-52
2024/01/03 03:07:08;;;;;;;28.10;21.00;;;;;;;10.11;49.20;101099.52;106811;1266;25356;-52
2024/01/03 03:09:35;;;;;;;26.00;20.40;;;;;;;10.12;49.18;101096.55;107110;1256;25504;-52
2024/01/03 03:12:02;;;;;;;29.80;21.40;;;;;;;10.14;49.13;101094.79;107176;1257;25349;-52
2024/01/03 03:14:29;;;;;;;26.70;20.80;;;;;;;10.16;49.15;101099.09;107107;1256;25328;-52
2024/01/03 03:16:56;;;;;;;28.10;21.10;;;;;;;10.17;48.98;101098.90;107090;1256;25346;-52
2024/01/03 03:19:23;;;;;;;27.10;21.30;;;;;;;10.18;49.01;101095.08;107100;1256;22534;-52
2024/01/03 03:21:50;;;;;;;28.90;21.30;;;;;;;10.18;49.02;101094.20;107095;1256;25430;-52
2024/01/03 03:24:17;;;;;;;24.70;19.80;;;;;;;10.19;49.11;101094.88;106276;1256;1002840;-52
2024/01/03 03:26:44;;;;;;;27.30;21.20;;;;;;;10.20;49.13;101105.97;107177;1257;25337;-52
2024/01/03 03:29:11;;;;;;;24.80;20.00;;;;;;;10.22;49.02;101104.38;106893;1256;25334;-51
2024/01/03 03:31:38;;;;;;;26.70;20.70;;;;;;;10.23;49.04;101097.26;106404;1254;1003756;-52
2024/01/03 03:34:05;;;;;;;25.90;19.70;;;;;;;10.24;49.21;101088.92;106831;1259;25334;-52
2024/01/03 03:36:32;;;;;;;24.20;19.70;;;;;;;10.25;49.25;101084.38;107182;1253;25362;-52
2024/01/03 03:38:59;;;;;;;23.80;19.20;;;;;;;10.26;49.27;101087.14;107120;1257;25368;-52
2024/01/03 03:41:26;;;;;;;24.20;19.50;;;;;;;10.27;49.28;101086.79;107154;1257;25484;-52
2024/01/03 03:43:53;;;;;;;24.90;20.20;;;;;;;10.29;49.38;101085.88;107071;1260;25372;-52
2024/01/03 03:46:20;;;;;;;23.40;19.20;;;;;;;10.30;49.40;101088.14;106887;1272;25366;-52
2024/01/03 03:48:47;;;;;;;24.50;19.40;;;;;;;10.31;49.44;101087.41;107143;1250;23861;-53
2024/01/03 03:51:14;;;;;;;23.70;18.20;;;;;;;10.33;49.48;101085.65;107124;1257;25382;-52
2024/01/03 03:53:41;;;;;;;25.80;18.90;;;;;;;10.34;49.51;101076.62;107154;1263;25414;-52
2024/01/03 03:56:08;;;;;;;23.70;18.60;;;;;;;10.35;49.57;101076.79;107061;1254;25318;-52
2024/01/03 03:58:36;;;;;;;21.80;17.40;;;;;;;10.35;49.58;101072.08;107042;1257;25328;-52
2024/01/03 04:01:03;;;;;;;22.20;17.60;;;;;;;10.36;49.69;101072.27;107151;1251;26150;-52
2024/01/03 04:03:30;;;;;;;26.00;19.20;;;;;;;10.36;49.71;101075.05;107177;1260;25414;-52
2024/01/03 04:05:58;;;;;;;21.10;17.40;;;;;;;10.37;49.79;101072.94;107006;1257;25337;-52
2024/01/03 04:08:24;;;;;;;23.90;17.80;;;;;;;10.38;49.86;101073.09;106342;1256;1003430;-51
2024/01/03 04:10:52;;;;;;;21.60;18.30;;;;;;;10.40;49.85;101072.71;106823;1258;22667;-52
2024/01/03 04:13:19;;;;;;;22.30;18.30;;;;;;;10.41;49.86;101070.77;107076;1260;25379;-52
2024/01/03 04:15:45;;;;;;;22.70;18.20;;;;;;;10.41;49.87;101070.95;106324;1256;1003502;-52
2024/01/03 04:18:12;;;;;;;20.40;17.40;;;;;;;10.41;49.95;101067.83;106847;1259;25331;-52
2024/01/03 04:20:40;;;;;;;22.10;17.50;;;;;;;10.42;49.84;101070.77;107039;1256;25352;-52
2024/01/03 04:23:07;;;;;;;22.00;17.80;;;;;;;10.42;49.62;101070.25;106921;1269;25498;-52
2024/01/03 04:25:34;;;;;;;21.90;18.00;;;;;;;10.42;49.61;101065.91;106394;1256;1003097;-52
2024/01/03 04:28:01;;;;;;;21.40;17.00;;;;;;;10.42;49.62;101062.45;107237;1254;25404;-52
2024/01/03 04:30:28;;;;;;;20.70;17.70;;;;;;;10.41;49.54;101053.44;107112;1257;25373;-53
2024/01/03 04:32:55;;;;;;;21.00;17.10;;;;;;;10.40;49.62;101044.80;107052;1260;22526;-51
2024/01/03 04:35:23;;;;;;;21.50;17.90;;;;;;;10.39;49.65;101042.54;107103;1257;25437;-53
2024/01/03 04:37:50;;;;;;;23.40;19.30;;;;;;;10.38;49.53;101042.91;107085;1266;24219;-52
2024/01/03 04:40:17;;;;;;;23.60;18.30;;;;;;;10.35;49.46;101042.80;107123;1256;25411;-53
2024/01/03 04:42:44;;;;;;;21.60;18.10;;;;;;;10.33;49.48;101048.03;107209;1263;25513;-53
2024/01/03 04:45:11;;;;;;;22.20;17.90;;;;;;;10.29;49.57;101047.91;107117;1256;25414;-53
2024/01/03 04:47:39;;;;;;;23.90;19.20;;;;;;;10.27;49.57;101049.17;107184;1257;25347;-53
2024/01/03 04:50:07;;;;;;;22.30;18.50;;;;;;;10.25;49.70;101050.05;107105;1253;25278;-53
2024/01/03 04:52:34;;;;;;;21.00;18.20;;;;;;;10.24;49.66;101049.56;107172;1263;25341;-53
2024/01/03 04:55:01;;;;;;;20.10;17.30;;;;;;;10.22;49.61;101050.29;107074;1256;25343;-53
2024/01/03 04:57:28;;;;;;;19.70;17.30;;;;;;;10.20;49.60;101044.08;107167;1255;25337;-52
2024/01/03 04:59:55;;;;;;;19.10;16.60;;;;;;;10.18;49.55;101038.02;106773;1257;25347;-53
2024/01/03 05:02:22;;;;;;;25.90;17.50;;;;;;;10.17;49.48;101037.53;107098;1256;25335;-52
2024/01/03 05:04:49;;;;;;;22.40;17.40;;;;;;;10.15;49.44;101037.56;107078;1263;25404;-53
2024/01/03 05:07:16;;;;;;;22.20;18.50;;;;;;;10.14;49.39;101038.80;107131;1261;25334;-52
2024/01/03 05:09:43;;;;;;;21.00;17.40;;;;;;;10.11;49.38;101037.98;106855;1259;25415;-52
2024/01/03 05:12:10;;;;;;;23.00;18.10;;;;;;;10.10;49.44;101036.59;107120;1256;25385;-53
2024/01/03 05:14:37;;;;;;;22.40;18.30;;;;;;;10.08;49.50;101032.27;107103;1255;25363;-53
2024/01/03 05:17:04;;;;;;;20.40;18.10;;;;;;;10.06;49.50;101028.99;107020;1257;25481;-53
2024/01/03 05:19:31;;;;;;;25.10;18.50;;;;;;;10.05;49.40;101029.38;107099;1256;25338;-53
2024/01/03 05:21:59;;;;;;;26.10;20.00;;;;;;;10.04;49.50;101029.39;106915;1260;25414;-53
2024/01/03 05:24:27;;;;;;;28.30;21.00;;;;;;;10.03;49.78;101031.99;106831;1256;22656;-52
2024/01/03 05:26:54;;;;;;;31.60;20.70;;;;;;;10.04;50.01;101034.40;107151;1256;25414;-53
2024/01/03 05:29:21;;;;;;;31.80;21.30;;;;;;;10.05;50.24;101041.33;107164;1259;25365;-53
2024/01/03 05:31:48;;;;;;;29.10;19.90;;;;;;;10.07;50.38;101038.52;107059;1257;25545;-53
2024/01/03 05:34:15;;;;;;;28.20;19.40;;;;;;;10.09;50.57;101033.64;107153;1257;25418;-53
2024/01/03 05:36:42;;;;;;;28.90;18.80;;;;;;;10.12;50.66;101034.50;107084;1256;25418;-53
2024/01/03 05:39:15;;;;;;;27.60;18.30;;;;;;;10.15;50.74;101034.61;107105;1253;23324;-53
2024/01/03 05:41:42;;;;;;;24.50;17.90;;;;;;;10.18;50.99;101037.34;106323;1253;1003494;-54
2024/01/03 05:44:09;;;;;;;22.10;17.60;;;;;;;10.22;51.23;101046.13;106360;1252;1002853;-52
2024/01/03 05:46:36;;;;;;;22.30;15.60;;;;;;;10.25;51.56;101049.19;106802;1270;25436;-53
2024/01/03 05:49:03;;;;;;;20.30;16.10;;;;;;;10.30;51.73;101050.86;106984;1258;25365;-53
2024/01/03 05:51:31;;;;;;;17.40;14.90;;;;;;;10.35;51.86;101050.77;107142;1257;25373;-52
2024/01/03 05:53:57;;;;;;;20.40;14.50;;;;;;;10.40;51.83;101052.77;107047;1256;25337;-52
2024/01/03 05:56:25;;;;;;;17.30;14.50;;;;;;;10.46;51.80;101051.45;106882;1259;25325;-53
2024/01/03 05:58:52;;;;;;;17.50;13.90;;;;;;;10.52;51.91;101049.27;106544;1262;25411;-53
2024/01/03 06:01:19;;;;;;;19.00;13.20;;;;;;;10.57;51.75;101048.33;106825;1259;25344;-52
2024/01/03 06:03:47;;;;;;;17.10;12.80;;;;;;;10.63;51.60;101045.63;107182;1254;23326;-53
2024/01/03 06:06:14;;;;;;;17.60;14.00;;;;;;;10.69;51.56;101043.08;107170;1263;22538;-52
2024/01/03 06:08:42;;;;;;;16.70;13.90;;;;;;;10.74;51.51;101041.07;107171;1263;25405;-53
2024/01/03 06:11:09;;;;;;;17.00;14.00;;;;;;;10.81;51.65;101036.61;106698;1261;25338;-52
2024/01/03 06:13:36;;;;;;;16.60;12.40;;;;;;;10.86;51.86;101025.23;107036;1256;22529;-53
2024/01/03 06:16:04;;;;;;;14.60;12.30;;;;;;;10.92;51.98;101021.64;107086;1255;25366;-51
2024/01/03 06:18:31;;;;;;;16.00;13.10;;;;;;;10.99;52.17;101011.45;106977;1259;25516;-51
2024/01/03 06:20:58;;;;;;;19.10;14.00;;;;;;;11.05;52.33;101006.13;106837;1259;25369;-51
2024/01/03 06:23:25;;;;;;;17.80;13.50;;;;;;;11.12;52.59;101001.65;107131;1257;25414;-50
2024/01/03 06:25:52;;;;;;;17.60;13.40;;;;;;;11.17;52.83;100998.41;107071;1256;25401;-51
2024/01/03 06:28:21;;;;;;;16.40;13.30;;;;;;;11.25;52.91;100997.72;107184;1260;25414;-51
2024/01/03 06:30:48;;;;;;;17.00;13.60;;;;;;;11.32;53.07;100993.76;107158;1264;23122;-51
2024/01/03 06:33:15;;;;;;;18.30;13.30;;;;;;;11.38;53.21;100992.92;107068;1256;25475;-51
2024/01/03 06:35:42;;;;;;;18.90;13.70;;;;;;;11.44;53.53;100988.80;106691;1275;25353;-50
2024/01/03 06:38:09;;;;;;;12.00;9.30;;;;;;;11.51;53.79;100990.05;106983;1269;25484;-51
2024/01/03 06:40:36;;;;;;;10.30;7.70;;;;;;;11.57;54.28;100984.89;107116;1264;24239;-51
2024/01/03 06:43:04;;;;;;;9.60;6.90;;;;;;;11.64;54.65;100982.64;106792;1267;25401;-51
2024/01/03 06:45:31;;;;;;;9.80;7.40;;;;;;;11.73;55.01;100980.55;107158;1257;25337;-51
2024/01/03 06:47:58;;;;;;;13.20;9.20;;;;;;;11.82;55.49;100972.88;106809;1264;25344;-51
2024/01/03 06:50:27;;;;;;;11.30;7.70;;;;;;;11.91;55.62;100974.40;106417;1259;1003185;-51
2024/01/03 06:52:54;;;;;;;12.40;7.70;;;;;;;12.00;55.67;100961.66;107142;1260;23862;-51
2024/01/03 06:55:21;;;;;;;10.20;7.10;;;;;;;12.10;55.72;100961.59;107223;1256;25378;-51
2024/01/03 06:57:48;;;;;;;9.10;6.70;;;;;;;12.17;55.67;100957.21;106815;1259;25330;-52
2024/01/03 07:00:16;;;;;;;11.70;7.20;;;;;;;12.27;55.62;100952.45;107105;1257;24265;-51
2024/01/03 07:02:43;;;;;;;7.90;6.20;;;;;;;12.36;55.58;100953.80;107220;1256;25405;-51
2024/01/03 07:05:10;;;;;;;9.60;6.00;;;;;;;12.44;55.37;100950.96;106351;1263;1003609;-51
2024/01/03 07:07:37;;;;;;;9.30;5.90;;;;;;;12.53;55.18;100948.82;107044;1256;25475;-51
2024/01/03 07:10:05;;;;;;;8.10;5.20;;;;;;;12.61;54.91;100939.71;107119;1257;25405;-51
2024/01/03 07:12:32;;;;;;;9.00;5.90;;;;;;;12.69;54.72;100939.33;107212;1257;25405;-51
2024/01/03 07:15:00;;;;;;;8.40;5.70;;;;;;;12.77;54.67;100936.67;106829;1272;24244;-51
2024/01/03 07:17:28;;;;;;;7.80;5.20;;;;;;;12.84;54.40;100934.19;107179;1253;25337;-51
2024/01/03 07:19:55;;;;;;;8.20;6.30;;;;;;;12.93;54.37;100934.65;106693;1267;25325;-52
2024/01/03 07:22:22;;;;;;;9.60;6.70;;;;;;;12.99;54.48;100932.88;106837;1266;25524;-52
2024/01/03 07:24:49;;;;;;;13.20;6.90;;;;;;;13.06;54.56;100922.95;106832;1266;25338;-53
2024/01/03 07:27:18;;;;;;;13.20;7.50;;;;;;;13.14;54.77;100917.01;107223;1260;23239;-52
2024/01/03 07:29:46;;;;;;;11.40;8.10;;;;;;;13.20;54.83;100915.94;106911;1273;25337;-52
2024/01/03 07:32:13;;;;;;;14.40;8.40;;;;;;;13.27;54.88;100914.35;107135;1260;25433;-52
2024/01/03 07:34:40;;;;;;;15.30;8.90;;;;;;;13.34;54.93;100911.68;106838;1272;25325;-52
2024/01/03 07:37:07;;;;;;;13.70;8.50;;;;;;;13.41;54.93;100903.28;107100;1266;25427;-52
2024/01/03 07:39:34;;;;;;;14.20;8.80;;;;;;;13.47;54.83;100894.73;107050;1257;25408;-52
2024/01/03 07:42:01;;;;;;;14.10;8.30;;;;;;;13.53;54.73;100894.89;106405;1255;1003144;-52
2024/01/03 07:44:33;;;;;;;12.10;7.40;;;;;;;13.59;54.73;100893.98;106786;1259;25487;-52
2024/01/03 07:47:00;;;;;;;;;;;;;;;13.66;54.68;100892.89;107072;1256;26465;-52
2024/01/03 07:49:27;;;;;;;13.30;7.90;;;;;;;13.72;54.56;100886.59;107076;1256;24186;-52
2024/01/03 07:51:55;;;;;;;10.90;6.90;;;;;;;13.76;54.65;100878.09;106909;1272;24186;-52
2024/01/03 07:54:22;;;;;;;11.50;8.00;;;;;;;13.82;54.58;100878.77;107050;1269;25369;-52
2024/01/03 07:56:49;;;;;;;11.60;7.90;;;;;;;13.87;54.58;100878.08;107077;1253;25405;-52
2024/01/03 07:59:16;;;;;;;13.70;7.70;;;;;;;13.92;54.62;100877.54;106780;1273;25382;-52
2024/01/03 08:01:43;;;;;;;12.20;7.30;;;;;;;13.97;54.66;100874.77;106929;1257;25392;-52
2024/01/03 08:04:10;;;;;;;12.10;6.90;;;;;;;14.01;54.57;100869.40;106679;1272;24240;-52
2024/01/03 08:06:37;;;;;;;11.80;7.20;;;;;;;14.05;54.59;100870.83;106152;1256;1003726;-52
2024/01/03 08:09:04;;;;;;;10.50;6.40;;;;;;;14.07;54.35;100871.10;106870;1256;25436;-52
2024/01/03 08:11:32;;;;;;;12.30;6.60;;;;;;;14.09;54.19;100867.91;106605;1262;25319;-52
2024/01/03 08:13:59;;;;;;;11.70;6.30;;;;;;;14.09;54.19;100869.46;106874;1259;25414;-52
2024/01/03 08:16:26;;;;;;;10.10;5.30;;;;;;;14.10;54.11;100870.65;106798;1259;25414;-52
2024/01/03 08:18:53;;;;;;;10.20;4.90;;;;;;;14.10;54.02;100865.07;106997;1263;25319;-52
2024/01/03 08:21:20;;;;;;;9.80;5.00;;;;;;;14.09;54.07;100858.14;107137;1258;25359;-52
2024/01/03 08:23:48;;;;;;;8.60;4.10;;;;;;;14.09;54.15;100853.23;107132;1270;25327;-52
2024/01/03 08:26:15;;;;;;;6.80;4.20;;;;;;;14.10;54.10;100849.55;107121;1267;25356;-52
2024/01/03 08:28:45;;;;;;;11.80;4.50;;;;;;;14.11;54.16;100832.25;107182;1266;25356;-52
2024/01/03 08:31:16;;;;;;;13.50;4.30;;;;;;;14.12;54.14;100817.90;107115;1255;23102;-52
2024/01/03 08:33:44;;;;;;;10.00;4.50;;;;;;;14.13;54.07;100805.13;107088;1261;22602;-53
2024/01/03 08:36:12;;;;;;;12.40;5.10;;;;;;;14.15;53.86;100803.33;107170;1255;25014;-52
2024/01/03 08:38:39;;;;;;;9.60;4.30;;;;;;;14.16;53.85;100799.96;107095;1255;24184;-52
2024/01/03 08:41:18;;;;;;;8.10;3.60;;;;;;;14.18;53.60;100796.91;107106;1258;22520;-51
2024/01/03 08:43:46;;;;;;;10.20;4.40;;;;;;;14.19;53.50;100793.92;107119;1256;25405;-51
2024/01/03 08:46:13;;;;;;;10.60;3.60;;;;;;;14.19;53.53;100785.19;107067;1256;25450;-51
2024/01/03 08:48:41;;;;;;;7.80;3.60;;;;;;;14.21;53.32;100774.68;106886;1259;22526;-51
2024/01/03 08:51:13;;;;;;;11.50;4.00;;;;;;;14.22;53.38;100768.52;107118;1263;22528;-51
2024/01/03 08:53:40;;;;;;;10.80;3.80;;;;;;;14.24;53.33;100761.46;107147;1255;22527;-51
2024/01/03 08:56:14;;;;;;;9.10;3.50;;;;;;;14.25;53.07;100763.35;107060;1269;25362;-51
2024/01/03 08:58:42;;;;;;;9.00;3.20;;;;;;;14.25;52.85;100764.39;106748;1270;22530;-52
2024/01/03 09:01:15;;;;;;;9.30;3.20;;;;;;;14.25;52.80;100763.02;107002;1266;22624;-52
2024/01/03 09:03:43;;;;;;;12.00;3.80;;;;;;;14.25;52.84;100762.48;106466;1267;25356;-52
2024/01/03 09:06:12;;;;;;;7.60;3.30;;;;;;;14.24;52.69;100760.92;106849;1270;25429;-51
2024/01/03 09:08:40;;;;;;;7.90;3.20;;;;;;;14.24;52.37;100752.92;107009;1266;25396;-51
2024/01/03 09:11:11;;;;;;;7.50;3.80;;;;;;;14.24;52.45;100744.18;106808;1269;25414;-52
2024/01/03 09:13:39;;;;;;;10.40;3.60;;;;;;;14.25;52.26;100743.98;107058;1257;25337;-51
2024/01/03 09:16:07;;;;;;;7.10;3.10;;;;;;;14.27;52.30;100744.25;107076;1266;25554;-51
2024/01/03 09:18:35;;;;;;;11.70;3.60;;;;;;;14.29;52.27;100744.20;106064;1259;1002904;-51
2024/01/03 09:21:03;;;;;;;11.40;3.70;;;;;;;14.32;52.35;100739.73;107155;1269;22742;-52
2024/01/03 09:23:31;;;;;;;18.30;3.60;;;;;;;14.34;52.44;100729.89;107118;1257;25449;-51
2024/01/03 09:25:59;;;;;;;16.40;3.90;;;;;;;14.36;52.27;100726.66;107115;1267;22649;-51
2024/01/03 09:28:26;;;;;;;9.50;3.80;;;;;;;14.39;52.27;100720.64;107157;1257;25445;-51
2024/01/03 09:30:53;;;;;;;10.60;2.90;;;;;;;14.41;51.98;100717.58;107075;1267;25405;-52
2024/01/03 09:33:20;;;;;;;9.90;2.70;;;;;;;14.42;50.96;100716.48;106978;1257;25484;-51
2024/01/03 09:35:48;;;;;;;6.20;2.90;;;;;;;14.44;50.24;100715.38;107159;1257;25346;-52
2024/01/03 09:38:15;;;;;;;6.40;2.80;;;;;;;14.44;49.73;100710.33;106865;1272;25324;-51
2024/01/03 09:40:43;;;;;;;12.70;3.30;;;;;;;14.43;49.75;100706.84;106819;1274;25338;-52
2024/01/03 09:43:10;;;;;;;10.20;2.70;;;;;;;14.45;49.75;100705.73;106806;1259;25487;-52
2024/01/03 09:45:38;;;;;;;9.70;2.70;;;;;;;14.46;49.65;100692.95;107152;1266;24473;-51
2024/01/03 09:48:06;;;;;;;7.60;2.90;;;;;;;14.48;49.73;100686.57;107126;1270;25521;-51
2024/01/03 09:50:34;;;;;;;6.30;2.70;;;;;;;14.53;49.80;100686.56;106340;1254;1003747;-52
2024/01/03 09:53:02;;;;;;;8.10;2.50;;;;;;;14.57;49.69;100679.39;107041;1256;24205;-52
2024/01/03 09:55:29;;;;;;;9.70;3.00;;;;;;;14.61;49.66;100677.52;107109;1263;25414;-52
2024/01/03 09:57:57;;;;;;;9.20;2.60;;;;;;;14.63;49.65;100681.08;106963;1267;25405;-52
2024/01/03 10:00:29;;;;;;;8.70;3.20;;;;;;;14.65;49.72;100674.35;106998;1273;25541;-51
2024/01/03 10:03:03;;;;;;;10.60;2.90;;;;;;;14.69;49.69;100675.29;106514;1265;24245;-52
2024/01/03 10:05:31;;;;;;;7.70;2.60;;;;;;;14.73;49.64;100673.74;107215;1257;24258;-52
2024/01/03 10:07:58;;;;;;;7.10;2.60;;;;;;;14.77;49.55;100668.14;107011;1259;25366;-51
2024/01/03 10:10:33;;;;;;;7.50;2.70;;;;;;;14.83;49.49;100662.50;107087;1267;25356;-52
2024/01/03 10:13:18;;;;;;;5.90;2.90;;;;;;;14.89;49.38;100657.38;107083;1259;25341;-52
2024/01/03 10:15:46;;;;;;;17.20;2.90;;;;;;;14.94;49.14;100648.42;107137;1267;22791;-53
2024/01/03 10:18:17;;;;;;;7.80;2.50;;;;;;;14.96;49.15;100636.45;107130;1257;23886;-53
2024/01/03 10:20:48;;;;;;;12.30;3.30;;;;;;;14.99;49.18;100627.62;106351;1263;1002788;-53
2024/01/03 10:23:16;;;;;;;6.60;2.80;;;;;;;15.01;49.08;100617.04;106918;1259;25484;-53
2024/01/03 10:25:44;;;;;;;10.40;2.90;;;;;;;15.01;49.05;100605.84;107212;1257;25366;-53
2024/01/03 10:28:16;;;;;;;9.20;2.70;;;;;;;15.01;49.35;100590.30;107161;1257;25325;-53
2024/01/03 10:30:50;;;;;;;10.50;2.80;;;;;;;15.03;49.50;100588.66;107174;1267;25411;-53
2024/01/03 10:33:17;;;;;;;7.90;2.50;;;;;;;15.06;49.51;100578.38;107016;1272;22528;-53
2024/01/03 10:35:45;;;;;;;11.30;3.10;;;;;;;15.11;49.49;100566.80;107024;1268;25334;-53
2024/01/03 10:38:16;;;;;;;8.00;3.10;;;;;;;15.16;49.52;100562.72;107177;1261;25372;-53
2024/01/03 10:40:44;;;;;;;9.40;3.20;;;;;;;15.20;49.55;100557.84;106909;1258;25328;-53
2024/01/03 10:43:11;;;;;;;6.80;2.80;;;;;;;15.23;49.65;100555.27;106849;1273;24366;-53
2024/01/03 10:45:38;;;;;;;8.70;3.30;;;;;;;15.26;49.73;100550.77;107098;1266;25478;-53
2024/01/03 10:48:06;;;;;;;12.30;3.10;;;;;;;15.26;49.71;100539.05;107077;1254;22614;-53
2024/01/03 10:50:34;;;;;;;6.70;2.80;;;;;;;15.26;49.82;100530.67;107184;1266;22543;-54
2024/01/03 10:53:03;;;;;;;11.20;4.30;;;;;;;15.24;49.82;100528.65;107049;1273;22530;-53
2024/01/03 10:55:33;;;;;;;6.90;3.20;;;;;;;15.23;50.04;100527.48;107243;1255;23556;-53
2024/01/03 10:58:01;;;;;;;15.70;3.80;;;;;;;15.22;50.16;100521.40;107091;1267;25328;-53
2024/01/03 11:00:55;;;;;;;11.90;4.20;;;;;;;15.23;50.36;100522.39;106877;1264;24376;-53
2024/01/03 11:03:28;;;;;;;10.40;4.40;;;;;;;15.23;50.39;100522.23;107113;1267;24202;-53
2024/01/03 11:06:01;;;;;;;7.60;3.10;;;;;;;15.21;50.45;100517.23;106806;1259;25356;-53
2024/01/03 11:08:34;;;;;;;10.90;4.10;;;;;;;15.19;50.39;100515.95;107138;1257;25383;-53
2024/01/03 11:11:01;;;;;;;6.80;3.20;;;;;;;15.19;50.51;100504.05;107162;1270;25365;-53